createdAt,value
2022-09-02T00:01:41.304Z,99814.78
2022-09-02T00:04:19.692Z,99815.59
2022-09-02T00:06:48.996Z,99810.94
2022-09-02T00:09:19.538Z,99826.56
2022-09-02T00:11:50.660Z,99806.50
2022-09-02T00:14:29.595Z,99814.84
2022-09-02T00:16:56.892Z,99817.69
2022-09-02T00:19:27.568Z,99818.19
2022-09-02T00:21:56.557Z,99807.03
2022-09-02T00:24:27.439Z,99804.84
2022-09-02T00:26:56.695Z,99795.56
2022-09-02T00:29:27.236Z,99803.09
2022-09-02T00:31:54.462Z,99801.94
2022-09-02T00:34:21.760Z,99793.25
2022-09-02T00:36:48.777Z,99803.13
2022-09-02T00:39:15.808Z,99801.47
2022-09-02T00:41:44.630Z,99799.84
2022-09-02T00:44:16.068Z,99788.47
2022-09-02T00:46:43.414Z,99795.16
2022-09-02T00:49:26.214Z,99784.59
2022-09-02T00:52:16.091Z,99784.03
2022-09-02T00:54:53.616Z,99777.47
2022-09-02T00:57:27.243Z,99778.53
2022-09-02T01:00:07.875Z,99783.34
2022-09-02T01:02:37.732Z,99775.47
2022-09-02T01:05:09.295Z,99777.59
2022-09-02T01:07:39.647Z,99779.72
2022-09-02T01:10:14.971Z,99773.50
2022-09-02T01:12:42.624Z,99781.00
2022-09-02T01:15:12.276Z,99783.13
2022-09-02T01:17:47.938Z,99782.00
2022-09-02T01:20:21.358Z,99781.41
2022-09-02T01:22:55.088Z,99780.00
2022-09-02T01:25:54.415Z,99791.88
2022-09-02T01:28:22.072Z,99784.47
2022-09-02T01:30:54.778Z,99790.94
2022-09-02T01:33:25.404Z,99782.28
2022-09-02T01:35:54.051Z,99782.72
2022-09-02T01:38:22.279Z,99784.88
2022-09-02T01:40:49.610Z,99772.06
2022-09-02T01:43:24.217Z,99776.41
2022-09-02T01:45:55.407Z,99775.84
2022-09-02T01:48:25.364Z,99786.88
2022-09-02T01:50:59.683Z,99783.56
2022-09-02T01:53:27.641Z,99773.03
2022-09-02T01:55:55.474Z,99779.72
2022-09-02T01:58:23.279Z,99783.50
2022-09-02T02:00:51.213Z,99767.50
2022-09-02T02:03:18.751Z,99775.28
2022-09-02T02:05:45.920Z,99775.53
2022-09-02T02:08:16.288Z,99777.03
2022-09-02T02:10:43.952Z,99772.72
2022-09-02T02:13:13.760Z,99779.63
2022-09-02T02:15:44.344Z,99781.50
2022-09-02T02:18:12.078Z,99780.94
2022-09-02T02:20:39.336Z,99773.06
2022-09-02T02:23:07.291Z,99774.16
2022-09-02T02:25:35.132Z,99772.72
2022-09-02T02:28:03.317Z,99772.72
2022-09-02T02:30:33.203Z,99764.06
2022-09-02T02:33:01.331Z,99773.19
2022-09-02T02:35:29.021Z,99769.09
2022-09-02T02:37:56.618Z,99771.78
2022-09-02T02:40:25.758Z,99774.16
2022-09-02T02:42:54.141Z,99783.28
2022-09-02T02:45:24.173Z,99768.16
2022-09-02T02:47:52.286Z,99774.59
2022-09-02T02:50:22.969Z,99770.84
2022-09-02T02:52:51.716Z,99773.78
2022-09-02T02:55:19.877Z,99771.28
2022-09-02T02:57:47.058Z,99770.72
2022-09-02T03:00:29.136Z,99764.72
2022-09-02T03:03:11.698Z,99775.50
2022-09-02T03:05:39.971Z,99765.22
2022-09-02T03:08:09.803Z,99765.69
2022-09-02T03:10:38.575Z,99765.69
2022-09-02T03:13:05.882Z,99764.03
2022-09-02T03:15:34.798Z,99771.53
2022-09-02T03:18:01.856Z,99764.25
2022-09-02T03:20:29.041Z,99759.13
2022-09-02T03:23:00.496Z,99755.84
2022-09-02T03:25:35.354Z,99760.63
2022-09-02T03:28:05.621Z,99749.25
2022-09-02T03:30:33.534Z,99753.03
2022-09-02T03:33:05.833Z,99762.16
2022-09-02T03:35:39.966Z,99752.44
2022-09-02T03:38:07.520Z,99749.13
2022-09-02T03:40:35.409Z,99744.00
2022-09-02T03:43:03.869Z,99748.00
2022-09-02T03:45:32.040Z,99758.75
2022-09-02T03:48:04.550Z,99756.75
2022-09-02T03:50:43.371Z,99758.88
2022-09-02T03:53:19.464Z,99761.22
2022-09-02T03:55:50.782Z,99761.44
2022-09-02T03:58:19.866Z,99755.25
2022-09-02T04:00:55.032Z,99754.63
2022-09-02T04:03:24.181Z,99750.53
2022-09-02T04:05:52.382Z,99753.72
2022-09-02T04:08:20.930Z,99755.59
2022-09-02T04:10:48.786Z,99763.06
2022-09-02T04:13:16.482Z,99754.41
2022-09-02T04:15:48.025Z,99753.81
2022-09-02T04:18:17.738Z,99755.91
2022-09-02T04:20:45.613Z,99754.28
2022-09-02T04:23:13.339Z,99755.81
2022-09-02T04:25:44.390Z,99755.81
2022-09-02T04:28:13.074Z,99751.44
2022-09-02T04:30:42.262Z,99748.41
2022-09-02T04:33:10.672Z,99754.03
2022-09-02T04:35:47.396Z,99745.94
2022-09-02T04:38:16.840Z,99742.66
2022-09-02T04:40:46.788Z,99755.91
2022-09-02T04:43:14.999Z,99749.09
2022-09-02T04:45:45.211Z,99753.41
2022-09-02T04:48:14.546Z,99749.56
2022-09-02T04:50:43.425Z,99751.06
2022-09-02T04:53:11.015Z,99749.44
2022-09-02T04:55:42.547Z,99754.81
2022-09-02T04:58:11.943Z,99762.31
2022-09-02T05:00:40.345Z,99754.44
2022-09-02T05:03:11.704Z,99755.72
2022-09-02T05:05:40.632Z,99751.66
2022-09-02T05:08:10.006Z,99753.53
2022-09-02T05:10:39.140Z,99758.28
2022-09-02T05:13:06.743Z,99758.53
2022-09-02T05:15:38.035Z,99757.94
2022-09-02T05:18:05.038Z,99755.50
2022-09-02T05:20:33.033Z,99744.72
2022-09-02T05:23:00.100Z,99756.31
2022-09-02T05:25:27.074Z,99758.75
2022-09-02T05:27:54.527Z,99759.59
2022-09-02T05:30:21.891Z,99767.41
2022-09-02T05:32:49.901Z,99762.28
2022-09-02T05:35:17.277Z,99757.94
2022-09-02T05:37:44.298Z,99760.88
2022-09-02T05:40:14.717Z,99759.00
2022-09-02T05:42:43.466Z,99764.38
2022-09-02T05:45:12.117Z,99760.03
2022-09-02T05:47:43.837Z,99750.09
2022-09-02T05:50:11.627Z,99761.22
2022-09-02T05:52:43.179Z,99760.63
2022-09-02T05:55:10.319Z,99763.09
2022-09-02T05:57:39.388Z,99760.41
2022-09-02T06:00:09.891Z,99764.50
2022-09-02T06:02:43.837Z,99765.31
2022-09-02T06:05:20.742Z,99766.97
2022-09-02T06:07:58.436Z,99758.09
2022-09-02T06:10:25.751Z,99765.31
2022-09-02T06:12:53.408Z,99768.38
2022-09-02T06:15:23.208Z,99763.38
2022-09-02T06:17:50.402Z,99761.59
2022-09-02T06:20:17.874Z,99772.50
2022-09-02T06:22:46.560Z,99773.72
2022-09-02T06:25:14.583Z,99770.31
2022-09-02T06:27:41.718Z,99764.00
2022-09-02T06:30:10.371Z,99770.09
2022-09-02T06:32:37.362Z,99767.91
2022-09-02T06:35:09.171Z,99769.56
2022-09-02T06:37:37.626Z,99760.06
2022-09-02T06:40:06.082Z,99766.03
2022-09-02T06:42:33.616Z,99773.66
2022-09-02T06:45:10.815Z,99774.22
2022-09-02T06:47:39.174Z,99765.06
2022-09-02T06:50:06.776Z,99765.84
2022-09-02T06:52:34.434Z,99762.53
2022-09-02T06:55:01.784Z,99754.91
2022-09-02T06:57:31.396Z,99760.47
2022-09-02T07:00:07.941Z,99755.75
2022-09-02T07:02:35.352Z,99756.19
2022-09-02T07:05:09.877Z,99762.28
2022-09-02T07:07:40.592Z,99757.56
2022-09-02T07:10:14.032Z,99760.13
2022-09-02T07:12:44.339Z,99759.72
2022-09-02T07:15:14.401Z,99759.56
2022-09-02T07:17:42.784Z,99763.19
2022-09-02T07:20:14.681Z,99765.38
2022-09-02T07:22:46.966Z,99756.03
2022-09-02T07:25:17.581Z,99757.75
2022-09-02T07:27:45.673Z,99757.59
2022-09-02T07:30:14.308Z,99753.91
2022-09-02T07:32:44.022Z,99753.50
2022-09-02T07:35:11.107Z,99744.97
2022-09-02T07:37:38.900Z,99747.34
2022-09-02T07:40:11.444Z,99746.75
2022-09-02T07:42:38.864Z,99746.06
2022-09-02T07:45:07.052Z,99747.84
2022-09-02T07:47:35.712Z,99748.28
2022-09-02T07:50:22.187Z,99751.69
2022-09-02T07:52:56.494Z,99759.97
2022-09-02T07:55:23.939Z,99755.00
2022-09-02T07:57:54.425Z,99757.25
2022-09-02T08:00:23.366Z,99758.72
2022-09-02T08:02:52.172Z,99763.41
2022-09-02T08:05:26.534Z,99764.03
2022-09-02T08:07:53.648Z,99757.03
2022-09-02T08:10:23.347Z,99757.06
2022-09-02T08:12:50.704Z,99760.41
2022-09-02T08:15:19.945Z,99763.72
2022-09-02T08:17:48.499Z,99771.88
2022-09-02T08:20:17.868Z,99765.94
2022-09-02T08:22:48.889Z,99771.97
2022-09-02T08:25:22.958Z,99770.94
2022-09-02T08:27:50.009Z,99764.75
2022-09-02T08:30:17.078Z,99765.56
2022-09-02T08:32:44.051Z,99759.13
2022-09-02T08:35:11.673Z,99755.91
2022-09-02T08:37:39.094Z,99764.66
2022-09-02T08:40:16.786Z,99770.66
2022-09-02T08:42:51.157Z,99767.44
2022-09-02T08:45:30.230Z,99759.34
2022-09-02T08:48:23.758Z,99754.75
2022-09-02T08:50:58.752Z,99761.59
2022-09-02T08:53:54.381Z,99757.28
2022-09-02T08:56:21.336Z,99754.59
2022-09-02T08:59:02.177Z,99749.19
2022-09-02T09:02:02.550Z,99749.25
2022-09-02T09:04:56.697Z,99738.47
2022-09-02T09:07:56.323Z,99742.78
2022-09-02T09:10:56.789Z,99745.00
2022-09-02T09:13:58.593Z,99734.69
2022-09-02T09:16:56.170Z,99724.38
2022-09-02T09:19:51.486Z,99732.81
2022-09-02T09:22:37.341Z,99728.47
2022-09-02T09:25:12.450Z,99721.69
2022-09-02T09:27:39.851Z,99738.00
2022-09-02T09:30:14.866Z,99736.38
2022-09-02T09:32:46.304Z,99723.91
2022-09-02T09:35:16.547Z,99725.53
2022-09-02T09:37:50.291Z,99719.81
2022-09-02T09:40:30.922Z,99727.41
2022-09-02T09:43:05.720Z,99713.22
2022-09-02T09:45:51.486Z,99715.38
2022-09-02T09:48:30.668Z,99708.31
2022-09-02T09:50:57.494Z,99706.91
2022-09-02T09:53:32.291Z,99709.06
2022-09-02T09:56:06.488Z,99701.97
2022-09-02T09:58:40.025Z,99703.34
2022-09-02T10:01:33.428Z,99693.75
2022-09-02T10:04:20.632Z,99701.88
2022-09-02T10:06:53.190Z,99693.66
2022-09-02T10:09:20.097Z,99706.41
2022-09-02T10:12:08.627Z,99700.63
2022-09-02T10:14:41.818Z,99696.78
2022-09-02T10:17:40.246Z,99687.50
2022-09-02T10:21:04.861Z,99689.09
2022-09-02T10:24:00.638Z,99688.50
2022-09-02T10:26:43.443Z,99680.31
2022-09-02T10:29:49.626Z,99689.03
2022-09-02T10:32:46.696Z,99674.25
2022-09-02T10:35:37.967Z,99687.63
2022-09-02T10:38:44.736Z,99672.88
2022-09-02T10:45:01.231Z,99663.78
2022-09-02T10:47:38.137Z,99666.94
2022-09-02T10:50:53.357Z,99660.34
2022-09-02T10:53:26.359Z,99667.09
2022-09-02T10:56:15.964Z,99667.56
2022-09-02T10:59:01.479Z,99649.53
2022-09-02T11:01:36.881Z,99644.25
2022-09-02T11:04:16.604Z,99650.97
2022-09-02T11:07:02.549Z,99648.94
2022-09-02T11:09:37.449Z,99650.97
2022-09-02T11:12:32.231Z,99639.38
2022-09-02T11:15:21.987Z,99637.41
2022-09-02T11:21:13.978Z,99636.44
2022-09-02T11:24:05.025Z,99612.34
2022-09-02T11:27:20.207Z,99622.13
2022-09-02T11:30:23.303Z,99623.19
2022-09-02T11:33:12.979Z,99612.25
2022-09-02T11:35:40.044Z,99616.06
2022-09-02T11:38:32.425Z,99606.06
2022-09-02T11:42:06.638Z,99608.84
2022-09-02T11:45:39.124Z,99610.41
2022-09-02T11:48:33.194Z,99610.03
2022-09-02T11:51:23.617Z,99604.16
2022-09-02T11:53:54.877Z,99595.28
2022-09-02T11:56:30.385Z,99591.97
2022-09-02T11:58:57.506Z,99592.66
2022-09-02T12:01:47.688Z,99609.97
2022-09-02T12:07:08.679Z,99605.91
2022-09-02T12:09:54.946Z,99596.88
2022-09-02T12:12:37.084Z,99605.19
2022-09-02T12:15:08.078Z,99611.31
2022-09-02T12:17:50.819Z,99601.59
2022-09-02T12:20:36.315Z,99588.72
2022-09-02T12:23:03.959Z,99581.63
2022-09-02T12:25:34.040Z,99580.59
2022-09-02T12:28:19.136Z,99582.66
2022-09-02T12:31:15.475Z,99578.47
2022-09-02T12:33:49.250Z,99573.31
2022-09-02T12:36:41.396Z,99567.13
2022-09-02T12:39:35.491Z,99563.41
2022-09-02T12:42:07.100Z,99560.75
2022-09-02T12:45:13.088Z,99558.50
2022-09-02T12:47:49.002Z,99558.88
2022-09-02T12:50:50.606Z,99549.31
2022-09-02T12:53:23.475Z,99549.81
2022-09-02T12:56:06.907Z,99557.03
2022-09-02T12:58:41.300Z,99545.28
2022-09-02T13:01:16.686Z,99541.91
2022-09-02T13:04:23.231Z,99534.06
2022-09-02T13:08:10.398Z,99540.66
2022-09-02T13:11:31.380Z,99531.63
2022-09-02T13:14:43.592Z,99521.00
2022-09-02T13:17:37.198Z,99524.41
2022-09-02T13:20:59.179Z,99523.97
2022-09-02T13:23:35.471Z,99512.34
2022-09-02T13:26:48.276Z,99505.41
2022-09-02T13:30:04.630Z,99499.53
2022-09-02T13:32:33.983Z,99503.34
2022-09-02T13:35:16.364Z,99497.88
2022-09-02T13:37:59.697Z,99500.31
2022-09-02T13:40:34.702Z,99489.03
2022-09-02T13:43:13.767Z,99490.91
2022-09-02T13:45:42.094Z,99491.44
2022-09-02T13:48:18.715Z,99487.22
2022-09-02T13:50:52.063Z,99483.25
2022-09-02T13:53:45.714Z,99475.81
2022-09-02T13:56:28.209Z,99466.09
2022-09-02T13:58:58.844Z,99464.16
2022-09-02T14:01:39.820Z,99463.84
2022-09-02T14:04:14.257Z,99456.75
2022-09-02T14:06:46.393Z,99459.16
2022-09-02T14:09:28.996Z,99453.88
2022-09-02T14:11:58.750Z,99445.16
2022-09-02T14:14:26.638Z,99458.56
2022-09-02T14:17:24.637Z,99454.72
2022-09-02T14:20:07.658Z,99441.81
2022-09-02T14:22:35.912Z,99438.78
2022-09-02T14:25:15.111Z,99422.78
2022-09-02T14:28:18.992Z,99431.03
2022-09-02T14:30:57.961Z,99430.66
2022-09-02T14:33:28.217Z,99428.06
2022-09-02T14:36:17.858Z,99417.41
2022-09-02T14:38:47.523Z,99418.81
2022-09-02T14:41:17.399Z,99407.56
2022-09-02T14:43:49.360Z,99409.00
2022-09-02T14:46:39.353Z,99407.25
2022-09-02T14:49:33.218Z,99399.94
2022-09-02T14:52:10.430Z,99396.41
2022-09-02T14:54:41.308Z,99392.53
2022-09-02T14:57:28.422Z,99396.88
2022-09-02T14:59:58.125Z,99405.75
2022-09-02T15:02:27.966Z,99401.41
2022-09-02T15:04:57.402Z,99398.22
2022-09-02T15:07:25.656Z,99402.25
2022-09-02T15:09:52.850Z,99402.44
2022-09-02T15:12:29.551Z,99396.50
2022-09-02T15:14:57.901Z,99392.63
2022-09-02T15:17:26.112Z,99392.13
2022-09-02T15:19:53.065Z,99377.59
2022-09-02T15:22:21.260Z,99377.59
2022-09-02T15:24:49.194Z,99373.75
2022-09-02T15:27:17.302Z,99384.72
2022-09-02T15:29:48.976Z,99380.25
2022-09-02T15:32:16.335Z,99383.28
2022-09-02T15:34:43.443Z,99391.34
2022-09-02T15:37:13.035Z,99385.69
2022-09-02T15:39:41.182Z,99389.88
2022-09-02T15:42:08.327Z,99386.94
2022-09-02T15:44:35.293Z,99386.78
2022-09-02T15:47:02.644Z,99381.91
2022-09-02T15:49:30.630Z,99380.63
2022-09-02T15:51:58.619Z,99384.31
2022-09-02T15:54:25.602Z,99376.41
2022-09-02T15:56:58.799Z,99374.13
2022-09-02T15:59:27.396Z,99379.28
2022-09-02T16:01:58.398Z,99375.56
2022-09-02T16:04:27.251Z,99375.38
2022-09-02T16:06:54.534Z,99388.59
2022-09-02T16:09:22.155Z,99384.84
2022-09-02T16:11:53.653Z,99388.19
2022-09-02T16:14:23.327Z,99384.78
2022-09-02T16:16:54.687Z,99394.91
2022-09-02T16:19:24.165Z,99389.53
2022-09-02T16:21:52.218Z,99385.31
2022-09-02T16:24:21.379Z,99376.88
2022-09-02T16:26:49.497Z,99373.16
2022-09-02T16:29:17.794Z,99380.38
2022-09-02T16:32:01.832Z,99374.84
2022-09-02T16:34:34.691Z,99370.13
2022-09-02T16:37:01.690Z,99376.03
2022-09-02T16:39:28.748Z,99375.09
2022-09-02T16:41:55.764Z,99370.38
2022-09-02T16:44:25.192Z,99378.19
2022-09-02T16:46:53.619Z,99369.91
2022-09-02T16:49:22.097Z,99365.47
2022-09-02T16:51:57.814Z,99371.66
2022-09-02T16:54:31.479Z,99362.84
2022-09-02T16:57:00.868Z,99352.94
2022-09-02T16:59:27.987Z,99357.50
2022-09-02T17:01:55.303Z,99358.19
2022-09-02T17:04:22.449Z,99357.78
2022-09-02T17:06:49.694Z,99361.25
2022-09-02T17:09:16.780Z,99357.59
2022-09-02T17:11:45.299Z,99357.69
2022-09-02T17:14:18.347Z,99355.06
2022-09-02T17:16:49.326Z,99348.69
2022-09-02T17:19:21.812Z,99344.41
2022-09-02T17:21:52.059Z,99350.25
2022-09-02T17:24:25.695Z,99360.75
2022-09-02T17:26:58.283Z,99355.69
2022-09-02T17:29:49.073Z,99359.13
2022-09-02T17:32:17.592Z,99360.63
2022-09-02T17:34:44.925Z,99360.47
2022-09-02T17:37:11.938Z,99357.31
2022-09-02T17:39:39.002Z,99351.91
2022-09-02T17:42:06.984Z,99348.19
2022-09-02T17:44:43.174Z,99343.59
2022-09-02T17:47:19.925Z,99343.13
2022-09-02T17:49:47.900Z,99345.13
2022-09-02T17:52:18.781Z,99337.94
2022-09-02T17:54:52.794Z,99330.09
2022-09-02T17:57:50.499Z,99330.47
2022-09-02T18:00:26.558Z,99333.13
2022-09-02T18:03:33.030Z,99339.47
2022-09-02T18:06:19.753Z,99345.28
2022-09-02T18:09:07.270Z,99333.91
2022-09-02T18:11:38.685Z,99334.00
2022-09-02T18:14:47.601Z,99337.38
2022-09-02T18:17:52.595Z,99330.47
2022-09-02T18:20:43.403Z,99331.16
2022-09-02T18:23:31.770Z,99334.50
2022-09-02T18:26:41.302Z,99330.28
2022-09-02T18:29:26.964Z,99332.53
2022-09-02T18:33:02.822Z,99332.06
2022-09-02T18:36:08.935Z,99329.09
2022-09-02T18:39:23.521Z,99333.84
2022-09-02T18:42:40.768Z,99339.88
2022-09-02T18:45:20.871Z,99336.97
2022-09-02T18:48:19.399Z,99337.00
2022-09-02T18:50:56.896Z,99342.22
2022-09-02T18:53:32.133Z,99343.38
2022-09-02T18:56:07.150Z,99351.84
2022-09-02T18:58:46.088Z,99346.44
2022-09-02T19:01:29.934Z,99353.00
2022-09-02T19:03:59.850Z,99353.88
2022-09-02T19:06:35.996Z,99356.06
2022-09-02T19:09:14.223Z,99357.19
2022-09-02T19:11:41.890Z,99359.13
2022-09-02T19:14:08.706Z,99360.47
2022-09-02T19:16:38.855Z,99365.38
2022-09-02T19:19:10.359Z,99376.56
2022-09-02T19:21:48.041Z,99368.13
2022-09-02T19:24:24.719Z,99363.81
2022-09-02T19:27:09.051Z,99371.97
2022-09-02T19:29:41.194Z,99366.84
2022-09-02T19:32:08.547Z,99373.16
2022-09-02T19:34:39.590Z,99375.59
2022-09-02T19:37:07.473Z,99377.25
2022-09-02T19:39:35.149Z,99375.09
2022-09-02T19:42:02.168Z,99368.31
2022-09-02T19:44:29.236Z,99369.13
2022-09-02T19:47:49.869Z,99374.56
2022-09-02T19:49:44.269Z,99373.25
2022-09-02T19:52:11.646Z,99359.13
2022-09-02T19:54:38.789Z,99367.00
2022-09-02T19:57:05.806Z,99366.78
2022-09-02T19:59:33.107Z,99364.59
2022-09-02T20:02:00.369Z,99374.13
2022-09-02T20:04:29.953Z,99371.38
2022-09-02T20:06:58.852Z,99367.84
2022-09-02T20:09:29.386Z,99370.03
2022-09-02T20:11:56.901Z,99374.38
2022-09-02T20:14:23.989Z,99362.47
2022-09-02T20:17:00.108Z,99370.06
2022-09-02T20:19:27.916Z,99374.41
2022-09-02T20:21:54.911Z,99366.00
2022-09-02T20:24:29.962Z,99368.75
2022-09-02T20:27:12.609Z,99361.94
2022-09-02T20:30:07.474Z,99361.94
2022-09-02T20:32:59.627Z,99355.72
2022-09-02T20:35:58.024Z,99348.91
2022-09-02T20:38:46.064Z,99353.81
2022-09-02T20:41:40.003Z,99355.19
2022-09-02T20:44:41.185Z,99346.75
2022-09-02T20:47:29.988Z,99340.50
2022-09-02T20:50:06.176Z,99347.84
2022-09-02T20:53:09.735Z,99348.94
2022-09-02T20:55:49.849Z,99357.34
2022-09-02T20:59:14.230Z,99349.50
2022-09-02T21:01:45.348Z,99350.03
2022-09-02T21:04:24.282Z,99343.25
2022-09-02T21:07:17.271Z,99348.91
2022-09-02T21:10:08.407Z,99344.59
2022-09-02T21:13:20.011Z,99341.88
2022-09-02T21:15:56.054Z,99347.84
2022-09-02T21:18:56.160Z,99350.03
2022-09-02T21:21:35.059Z,99351.09
2022-09-02T21:24:32.463Z,99345.09
2022-09-02T21:27:20.476Z,99345.66
2022-09-02T21:30:07.635Z,99356.75
2022-09-02T21:32:44.707Z,99353.78
2022-09-02T21:35:24.088Z,99355.97
2022-09-02T21:38:03.570Z,99349.44
2022-09-02T21:40:49.260Z,99339.13
2022-09-02T21:43:32.102Z,99335.88
2022-09-02T21:46:27.230Z,99335.88
2022-09-02T21:49:26.160Z,99332.09
2022-09-02T21:52:06.668Z,99336.69
2022-09-02T21:54:47.959Z,99336.94
2022-09-02T21:57:47.109Z,99346.16
2022-09-02T22:00:17.583Z,99333.41
2022-09-02T22:03:21.812Z,99334.75
2022-09-02T22:06:01.716Z,99338.56
2022-09-02T22:09:04.523Z,99347.22
2022-09-02T22:11:35.130Z,99345.06
2022-09-02T22:14:09.895Z,99349.94
2022-09-02T22:16:56.048Z,99338.53
2022-09-02T22:19:30.102Z,99333.66
2022-09-02T22:22:08.862Z,99332.03
2022-09-02T22:24:37.393Z,99328.75
2022-09-02T22:27:17.470Z,99335.53
2022-09-02T22:30:01.892Z,99343.13
2022-09-02T22:32:35.663Z,99336.34
2022-09-02T22:35:31.446Z,99341.22
2022-09-02T22:38:27.467Z,99345.81
2022-09-02T22:41:01.152Z,99355.56
2022-09-02T22:43:42.930Z,99357.72
2022-09-02T22:46:40.924Z,99347.97
2022-09-02T22:49:38.599Z,99346.88
2022-09-02T22:52:44.802Z,99342.25
2022-09-02T22:56:06.040Z,99340.88
2022-09-02T22:58:42.035Z,99339.53
2022-09-02T23:01:51.589Z,99340.63
2022-09-02T23:04:39.746Z,99340.56
2022-09-02T23:07:07.474Z,99334.84
2022-09-02T23:09:38.678Z,99336.19
2022-09-02T23:12:41.231Z,99332.13
2022-09-02T23:15:36.855Z,99328.84
2022-09-02T23:18:17.129Z,99337.78
2022-09-02T23:20:55.878Z,99340.75
2022-09-02T23:23:45.540Z,99335.59
2022-09-02T23:27:03.420Z,99332.63
2022-09-02T23:29:31.260Z,99331.00
2022-09-02T23:32:25.127Z,99323.09
2022-09-02T23:35:28.079Z,99336.66
2022-09-02T23:38:35.157Z,99332.31
2022-09-02T23:41:09.824Z,99336.09
2022-09-02T23:43:39.469Z,99330.69
2022-09-02T23:46:31.244Z,99340.72
2022-09-02T23:49:35.263Z,99331.22
2022-09-02T23:52:28.975Z,99327.44
2022-09-02T23:55:23.980Z,99318.19
2022-09-02T23:58:19.693Z,99323.34
